Rodney Mitchell — WCV8372 — position and weather

sailwx.info

Track history (hours):
 
Tides and Currents Weather Stations Pressure Air Temp Water Temp Dewpoint Dewpoint Depression Visibility Wind Speed Wind Dir Waves Ship Positions

Rodney Mitchell

Owner: VINTON CROSBY INC, GOLDEN MEADOW, LA. More information available from US FCC via Universal Licensing System and Coast Guard Vessel Documentation Center.

Last reported at 2015-Mar-30 23:33 UTC. Time now 2015-Apr-01 16:32 UTC.
Position N 29°30' W 094°52'.

; draft 3 m.

Type: Towing. MMSI: 367028860.

Date/timePositionNaut miles runAvg speedWind from/ knotsBaromVisibWave heightAir tempDewpointWater temp
2015-Mar-30 23:33N 29°30' W 094°52'5 4.9
2015-Mar-30 22:33N 29°34' W 094°55'5 4.9
2015-Mar-30 21:33N 29°38' W 094°58'5 4.8
2015-Mar-30 20:33N 29°42' W 095°01'5 4.6
2015-Mar-30 19:33N 29°46' W 095°04'2 1.9
2015-Mar-30 18:31N 29°47' W 095°04'0 0.1
2015-Mar-30 17:32N 29°48' W 095°04'0 0.0
2015-Mar-30 16:32N 29°48' W 095°04'2 1.4
2015-Mar-30 15:16N 29°46' W 095°05'1 1.4
2015-Mar-30 14:27N 29°46' W 095°06'0 0.0
2015-Mar-30 13:27N 29°46' W 095°06'0 0.0
2015-Mar-28 15:33N 29°46' W 095°06'1 1.0
2015-Mar-28 14:33N 29°46' W 095°05'1 0.6
2015-Mar-28 13:33N 29°47' W 095°05'0 0.0
2015-Mar-28 12:33N 29°47' W 095°05'0 0.0
2015-Mar-28 11:33N 29°47' W 095°05'0 0.0
2015-Mar-28 10:33N 29°47' W 095°05'0 0.0
2015-Mar-28 09:33N 29°47' W 095°05'0 0.0
2015-Mar-28 08:33N 29°47' W 095°05'0 0.0
2015-Mar-28 07:33N 29°47' W 095°05'0 0.0
2015-Mar-28 06:33N 29°47' W 095°05'0 0.0
2015-Mar-28 05:33N 29°47' W 095°05'0 0.0
2015-Mar-28 04:33N 29°47' W 095°05'0 0.0
2015-Mar-28 03:33N 29°47' W 095°05'0 0.0
2015-Mar-28 02:33N 29°47' W 095°05'0 0.0
2015-Mar-28 01:33N 29°47' W 095°05'0 0.0
2015-Mar-28 00:33N 29°47' W 095°05'0 0.0
2015-Mar-27 23:33N 29°47' W 095°05'0 0.0
2015-Mar-27 22:22N 29°47' W 095°05'0 0.0
2015-Mar-27 21:33N 29°47' W 095°05'0 0.0
2015-Mar-27 20:33N 29°47' W 095°05'0 0.0
2015-Mar-27 19:33N 29°47' W 095°05'0 0.0
2015-Mar-27 18:33N 29°47' W 095°05'0 0.0
2015-Mar-27 17:34N 29°47' W 095°05'0 0.0
2015-Mar-27 16:33N 29°47' W 095°05'0 0.0
2015-Mar-27 15:33N 29°46' W 095°05'0 0.0
2015-Mar-27 14:33N 29°46' W 095°05'0 0.0
2015-Mar-27 13:33N 29°46' W 095°05'0 0.0
2015-Mar-27 12:34N 29°46' W 095°05'0 0.0
2015-Mar-27 11:33N 29°46' W 095°05'0 0.0
2015-Mar-27 10:33N 29°46' W 095°05'0 0.0
2015-Mar-27 09:33N 29°46' W 095°05'0 0.0
2015-Mar-27 08:33N 29°46' W 095°05'0 0.0
2015-Mar-27 07:30N 29°47' W 095°05'0 0.0
2015-Mar-27 06:32N 29°47' W 095°05'0 0.0
2015-Mar-27 05:29N 29°47' W 095°05'0 0.0
2015-Mar-27 04:33N 29°46' W 095°05'0 0.0
2015-Mar-27 03:33N 29°46' W 095°05'0 0.0
2015-Mar-27 02:07N 29°46' W 095°05'0 0.0
2015-Mar-27 01:25N 29°46' W 095°05'0 0.0
2015-Mar-27 00:33N 29°46' W 095°05'0 0.0
2015-Mar-26 22:29N 29°46' W 095°05'1 0.4
2015-Mar-26 20:33N 29°46' W 095°05'4 4.1
2015-Mar-26 19:33N 29°43' W 095°01'3 3.5
2015-Mar-26 18:33N 29°40' W 094°59'4 4.1
2015-Mar-26 17:33N 29°37' W 094°57'4 4.3
2015-Mar-26 16:34N 29°33' W 094°54'5 4.6
2015-Mar-26 15:33N 29°29' W 094°52'6 5.3
2015-Mar-26 14:28N 29°24' W 094°49'  
2015-Mar-22 11:32N 29°29' W 094°52'5 5.2
2015-Mar-22 10:34N 29°34' W 094°55'5 5.4
2015-Mar-22 09:33N 29°38' W 094°58'6 6.0
2015-Mar-22 08:33N 29°44' W 095°01'4 4.0
2015-Mar-22 07:33N 29°46' W 095°05'0 0.0
2015-Mar-22 06:28N 29°46' W 095°05'0 0.0
2015-Mar-22 02:32N 29°46' W 095°05'0 0.0
2015-Mar-22 01:25N 29°46' W 095°05'0 0.0
2015-Mar-22 00:33N 29°46' W 095°05'0 0.0
2015-Mar-21 21:25N 29°46' W 095°05'0 0.0
2015-Mar-21 19:16N 29°46' W 095°05'0 0.0
2015-Mar-21 18:25N 29°46' W 095°05'0 0.1
2015-Mar-21 17:33N 29°46' W 095°05'0 0.0
2015-Mar-21 16:33N 29°46' W 095°05'0 0.0
2015-Mar-21 15:24N 29°46' W 095°05'3 3.9
2015-Mar-21 14:33N 29°44' W 095°07'5 4.4
2015-Mar-21 13:24N 29°43' W 095°13'  
Track history (hours):
 
Tides and Currents Weather Stations Pressure Air Temp Water Temp Dewpoint Dewpoint Depression Visibility Wind Speed Wind Dir Waves Ship Positions

Rodney Mitchell

Owner: VINTON CROSBY INC, GOLDEN MEADOW, LA. More information available from US FCC via Universal Licensing System and Coast Guard Vessel Documentation Center.

Last reported at 2015-Mar-30 23:33 UTC. Time now 2015-Apr-01 16:32 UTC.
Position N 29°30' W 094°52'.

; draft 3 m.

Type: Towing. MMSI: 367028860.

Date/timePositionNaut miles runAvg speedWind from/ knotsBaromVisibWave heightAir tempDewpointWater temp
2015-Mar-30 23:33N 29°30' W 094°52'5 4.9
2015-Mar-30 22:33N 29°34' W 094°55'5 4.9
2015-Mar-30 21:33N 29°38' W 094°58'5 4.8
2015-Mar-30 20:33N 29°42' W 095°01'5 4.6
2015-Mar-30 19:33N 29°46' W 095°04'2 1.9
2015-Mar-30 18:31N 29°47' W 095°04'0 0.1
2015-Mar-30 17:32N 29°48' W 095°04'0 0.0
2015-Mar-30 16:32N 29°48' W 095°04'2 1.4
2015-Mar-30 15:16N 29°46' W 095°05'1 1.4
2015-Mar-30 14:27N 29°46' W 095°06'0 0.0
2015-Mar-30 13:27N 29°46' W 095°06'0 0.0
2015-Mar-28 15:33N 29°46' W 095°06'1 1.0
2015-Mar-28 14:33N 29°46' W 095°05'1 0.6
2015-Mar-28 13:33N 29°47' W 095°05'0 0.0
2015-Mar-28 12:33N 29°47' W 095°05'0 0.0
2015-Mar-28 11:33N 29°47' W 095°05'0 0.0
2015-Mar-28 10:33N 29°47' W 095°05'0 0.0
2015-Mar-28 09:33N 29°47' W 095°05'0 0.0
2015-Mar-28 08:33N 29°47' W 095°05'0 0.0
2015-Mar-28 07:33N 29°47' W 095°05'0 0.0
2015-Mar-28 06:33N 29°47' W 095°05'0 0.0
2015-Mar-28 05:33N 29°47' W 095°05'0 0.0
2015-Mar-28 04:33N 29°47' W 095°05'0 0.0
2015-Mar-28 03:33N 29°47' W 095°05'0 0.0
2015-Mar-28 02:33N 29°47' W 095°05'0 0.0
2015-Mar-28 01:33N 29°47' W 095°05'0 0.0
2015-Mar-28 00:33N 29°47' W 095°05'0 0.0
2015-Mar-27 23:33N 29°47' W 095°05'0 0.0
2015-Mar-27 22:22N 29°47' W 095°05'0 0.0
2015-Mar-27 21:33N 29°47' W 095°05'0 0.0
2015-Mar-27 20:33N 29°47' W 095°05'0 0.0
2015-Mar-27 19:33N 29°47' W 095°05'0 0.0
2015-Mar-27 18:33N 29°47' W 095°05'0 0.0
2015-Mar-27 17:34N 29°47' W 095°05'0 0.0
2015-Mar-27 16:33N 29°47' W 095°05'0 0.0
2015-Mar-27 15:33N 29°46' W 095°05'0 0.0
2015-Mar-27 14:33N 29°46' W 095°05'0 0.0
2015-Mar-27 13:33N 29°46' W 095°05'0 0.0
2015-Mar-27 12:34N 29°46' W 095°05'0 0.0
2015-Mar-27 11:33N 29°46' W 095°05'0 0.0
2015-Mar-27 10:33N 29°46' W 095°05'0 0.0
2015-Mar-27 09:33N 29°46' W 095°05'0 0.0
2015-Mar-27 08:33N 29°46' W 095°05'0 0.0
2015-Mar-27 07:30N 29°47' W 095°05'0 0.0
2015-Mar-27 06:32N 29°47' W 095°05'0 0.0
2015-Mar-27 05:29N 29°47' W 095°05'0 0.0
2015-Mar-27 04:33N 29°46' W 095°05'0 0.0
2015-Mar-27 03:33N 29°46' W 095°05'0 0.0
2015-Mar-27 02:07N 29°46' W 095°05'0 0.0
2015-Mar-27 01:25N 29°46' W 095°05'0 0.0
2015-Mar-27 00:33N 29°46' W 095°05'0 0.0
2015-Mar-26 22:29N 29°46' W 095°05'1 0.4
2015-Mar-26 20:33N 29°46' W 095°05'4 4.1
2015-Mar-26 19:33N 29°43' W 095°01'3 3.5
2015-Mar-26 18:33N 29°40' W 094°59'4 4.1
2015-Mar-26 17:33N 29°37' W 094°57'4 4.3
2015-Mar-26 16:34N 29°33' W 094°54'5 4.6
2015-Mar-26 15:33N 29°29' W 094°52'6 5.3
2015-Mar-26 14:28N 29°24' W 094°49'  
2015-Mar-22 11:32N 29°29' W 094°52'5 5.2
2015-Mar-22 10:34N 29°34' W 094°55'5 5.4
2015-Mar-22 09:33N 29°38' W 094°58'6 6.0
2015-Mar-22 08:33N 29°44' W 095°01'4 4.0
2015-Mar-22 07:33N 29°46' W 095°05'0 0.0
2015-Mar-22 06:28N 29°46' W 095°05'0 0.0
2015-Mar-22 02:32N 29°46' W 095°05'0 0.0
2015-Mar-22 01:25N 29°46' W 095°05'0 0.0
2015-Mar-22 00:33N 29°46' W 095°05'0 0.0
2015-Mar-21 21:25N 29°46' W 095°05'0 0.0
2015-Mar-21 19:16N 29°46' W 095°05'0 0.0
2015-Mar-21 18:25N 29°46' W 095°05'0 0.1
2015-Mar-21 17:33N 29°46' W 095°05'0 0.0
2015-Mar-21 16:33N 29°46' W 095°05'0 0.0
2015-Mar-21 15:24N 29°46' W 095°05'3 3.9
2015-Mar-21 14:33N 29°44' W 095°07'5 4.4
2015-Mar-21 13:24N 29°43' W 095°13'  

Dump ship's entire track history